Time;durP1;ratioP1;P1;durP2;ratioP2;P2;SDS_P1;SDS_P2;PMS_P1;PMS_P2;Temp;Humidity;BMP_temperature;BMP_pressure;BME280_temperature;BME280_humidity;BME280_pressure;Samples;Min_cycle;Max_cycle;Signal;HPM_P1;HPM_P2
2021/08/28 00:00:06;;;;;;;16.77;10.63;;;13.30;99.90;;;;;;5042699;28;20227;-67
2021/08/28 00:02:31;;;;;;;14.97;11.13;;;13.30;99.90;;;;;;5031763;28;20198;-67
2021/08/28 00:04:57;;;;;;;11.30;10.23;;;13.30;99.90;;;;;;5038073;28;20257;-67
2021/08/28 00:07:22;;;;;;;15.17;11.07;;;13.30;99.90;;;;;;5051578;28;20178;-67
2021/08/28 00:09:48;;;;;;;14.47;9.97;;;13.30;99.90;;;;;;5046093;28;20225;-67
2021/08/28 00:12:14;;;;;;;13.83;9.70;;;13.30;99.90;;;;;;5044457;28;20198;-66
2021/08/28 00:14:39;;;;;;;12.17;9.70;;;13.30;99.90;;;;;;5039386;28;20228;-67
2021/08/28 00:17:05;;;;;;;15.63;9.00;;;13.20;99.90;;;;;;5050399;28;20599;-66
2021/08/28 00:19:31;;;;;;;12.70;9.70;;;13.30;99.90;;;;;;5038004;28;20221;-66
2021/08/28 00:21:56;;;;;;;9.90;9.03;;;13.40;99.90;;;;;;5050190;28;20195;-66
2021/08/28 00:24:22;;;;;;;11.87;10.20;;;13.40;99.90;;;;;;5031599;28;20517;-67
2021/08/28 00:26:48;;;;;;;11.63;9.87;;;13.40;99.90;;;;;;5050245;28;20179;-67
2021/08/28 00:29:13;;;;;;;19.83;11.27;;;13.40;99.90;;;;;;5032352;28;20262;-66
2021/08/28 00:31:39;;;;;;;15.77;11.97;;;13.50;99.90;;;;;;5047605;28;20272;-66
2021/08/28 00:34:04;;;;;;;12.33;10.67;;;13.50;99.90;;;;;;5046978;28;20224;-66
2021/08/28 00:36:30;;;;;;;12.40;9.53;;;13.60;99.90;;;;;;5041606;28;20180;-67
2021/08/28 00:38:56;;;;;;;15.50;10.63;;;13.60;99.90;;;;;;5045437;28;20190;-67
2021/08/28 00:41:21;;;;;;;15.50;11.00;;;13.60;99.90;;;;;;5049711;28;20299;-66
2021/08/28 00:43:47;;;;;;;13.93;10.37;;;13.70;99.90;;;;;;5039329;28;20191;-67
2021/08/28 00:46:13;;;;;;;15.80;10.63;;;13.70;99.90;;;;;;5031460;28;20202;-67
2021/08/28 00:48:38;;;;;;;13.13;11.00;;;13.70;99.90;;;;;;5046293;28;20261;-67
2021/08/28 00:51:04;;;;;;;19.47;11.80;;;13.70;99.90;;;;;;5054810;28;20701;-66
2021/08/28 00:53:31;;;;;;;15.10;11.23;;;13.70;99.90;;;;;;5050624;28;20706;-66
2021/08/28 00:55:56;;;;;;;22.70;13.30;;;13.70;99.90;;;;;;5054665;28;20197;-67
2021/08/28 00:58:23;;;;;;;20.17;13.50;;;13.70;99.90;;;;;;5050661;28;20179;-66
2021/08/28 01:00:50;;;;;;;18.17;14.07;;;13.70;99.90;;;;;;5053520;28;20206;-66
2021/08/28 01:03:27;;;;;;;16.13;13.77;;;13.60;99.90;;;;;;5046296;28;20187;-67
2021/08/28 01:06:04;;;;;;;17.10;13.10;;;13.60;99.90;;;;;;5037359;28;20187;-67
2021/08/28 01:09:04;;;;;;;15.23;12.30;;;13.50;99.90;;;;;;5052685;28;20191;-67
2021/08/28 01:11:37;;;;;;;18.07;13.40;;;13.60;99.90;;;;;;5053632;28;20215;-67
2021/08/28 01:14:13;;;;;;;14.53;12.23;;;13.50;99.90;;;;;;5045180;28;20209;-66
2021/08/28 01:16:42;;;;;;;20.10;14.87;;;13.50;99.90;;;;;;5052867;28;20185;-67
2021/08/28 01:19:16;;;;;;;19.90;14.17;;;13.50;99.90;;;;;;5047504;28;20186;-66
2021/08/28 01:21:43;;;;;;;22.30;14.80;;;13.50;99.90;;;;;;5036866;28;20703;-66
2021/08/28 01:24:10;;;;;;;21.10;14.90;;;13.60;99.90;;;;;;5038426;28;20205;-66
2021/08/28 01:26:43;;;;;;;23.10;16.23;;;13.60;99.90;;;;;;5040197;28;20209;-66
2021/08/28 01:29:28;;;;;;;20.60;15.00;;;13.60;99.90;;;;;;5051564;28;20183;-66
2021/08/28 01:31:55;;;;;;;25.77;15.73;;;13.70;99.90;;;;;;5050469;28;20214;-66
2021/08/28 01:34:22;;;;;;;22.40;16.07;;;13.70;99.90;;;;;;5044399;28;20187;-66
2021/08/28 01:36:49;;;;;;;22.73;17.40;;;13.80;99.90;;;;;;5051274;28;20664;-67
2021/08/28 01:39:16;;;;;;;27.37;17.87;;;13.80;99.90;;;;;;5052854;28;20650;-67
2021/08/28 01:41:46;;;;;;;25.37;18.20;;;13.80;99.90;;;;;;5038790;28;20261;-66
2021/08/28 01:44:13;;;;;;;35.97;24.63;;;13.90;99.90;;;;;;5040612;28;20217;-67
2021/08/28 01:46:41;;;;;;;29.43;20.73;;;13.90;99.90;;;;;;5048253;28;20183;-66
2021/08/28 01:49:08;;;;;;;29.10;19.87;;;13.90;99.90;;;;;;5039160;28;20193;-67
2021/08/28 01:51:35;;;;;;;31.47;20.10;;;13.90;99.90;;;;;;5048788;28;20261;-67
2021/08/28 01:54:01;;;;;;;27.87;19.00;;;13.90;99.90;;;;;;5048681;28;20176;-66
2021/08/28 01:56:27;;;;;;;25.87;20.13;;;13.90;99.90;;;;;;5045305;28;20248;-67
2021/08/28 01:58:53;;;;;;;27.57;18.87;;;13.90;99.90;;;;;;5041327;28;20191;-67
2021/08/28 02:01:19;;;;;;;28.07;20.33;;;13.90;99.90;;;;;;5053313;28;20695;-66
2021/08/28 02:03:45;;;;;;;30.77;19.60;;;13.90;99.90;;;;;;5041080;28;20188;-67
2021/08/28 02:06:19;;;;;;;35.30;21.07;;;13.90;99.90;;;;;;5052611;28;20175;-67
2021/08/28 02:08:54;;;;;;;27.83;19.23;;;13.90;99.90;;;;;;5040820;28;20544;-67
2021/08/28 02:11:31;;;;;;;29.00;20.60;;;14.00;99.90;;;;;;5043627;28;20256;-66
2021/08/28 02:14:36;;;;;;;34.23;19.87;;;14.00;99.90;;;;;;5033058;28;20269;-67
2021/08/28 02:17:07;;;;;;;29.00;19.30;;;14.00;99.90;;;;;;5034084;28;20207;-70
2021/08/28 02:19:37;;;;;;;32.23;19.87;;;14.00;99.90;;;;;;5038584;28;20568;-72
2021/08/28 02:22:19;;;;;;;28.10;20.07;;;14.00;99.90;;;;;;5038956;28;20203;-69
2021/08/28 02:24:48;;;;;;;28.10;20.37;;;14.00;99.90;;;;;;5055042;28;20186;-68
2021/08/28 02:27:23;;;;;;;34.43;20.77;;;14.00;99.90;;;;;;5038839;28;20180;-69
2021/08/28 02:29:54;;;;;;;30.30;21.00;;;14.00;99.90;;;;;;5039973;28;20206;-70
2021/08/28 02:32:21;;;;;;;27.50;20.40;;;14.10;99.90;;;;;;5041871;28;20218;-73
2021/08/28 02:34:50;;;;;;;34.10;20.53;;;14.00;99.90;;;;;;5047019;28;20185;-69
2021/08/28 02:37:16;;;;;;;35.10;21.70;;;14.10;99.90;;;;;;5049452;28;20267;-70
2021/08/28 02:39:44;;;;;;;35.63;22.37;;;14.10;99.90;;;;;;5041938;28;20274;-70
2021/08/28 02:42:12;;;;;;;30.23;21.03;;;14.20;99.90;;;;;;5051693;28;20202;-71
2021/08/28 02:44:39;;;;;;;32.80;20.23;;;14.20;99.90;;;;;;5051181;28;20772;-73
2021/08/28 02:47:07;;;;;;;27.23;19.97;;;14.10;99.90;;;;;;5046285;28;20211;-71
2021/08/28 02:49:35;;;;;;;26.97;20.07;;;14.10;99.90;;;;;;5043399;28;20182;-70
2021/08/28 02:52:03;;;;;;;28.70;20.33;;;14.20;99.90;;;;;;5047788;28;20209;-73
2021/08/28 02:54:29;;;;;;;24.43;19.17;;;14.20;99.90;;;;;;5043663;28;20179;-72
2021/08/28 02:56:57;;;;;;;33.03;20.10;;;14.20;99.90;;;;;;5049573;28;20179;-71
2021/08/28 02:59:24;;;;;;;29.17;20.90;;;14.20;99.90;;;;;;5041869;28;20175;-73
2021/08/28 03:01:50;;;;;;;30.40;20.20;;;14.30;99.90;;;;;;5050072;28;20249;-71
2021/08/28 03:04:18;;;;;;;30.67;21.03;;;14.30;99.90;;;;;;5039221;28;20178;-69
2021/08/28 03:06:46;;;;;;;32.87;21.63;;;14.30;99.90;;;;;;5051962;28;20170;-70
2021/08/28 03:09:12;;;;;;;33.00;20.83;;;14.30;99.90;;;;;;5037269;28;20592;-70
2021/08/28 03:11:38;;;;;;;33.43;20.97;;;14.30;99.90;;;;;;5052286;28;20206;-72
2021/08/28 03:14:04;;;;;;;35.27;21.77;;;14.40;99.90;;;;;;5037684;28;20659;-71
2021/08/28 03:16:31;;;;;;;35.03;21.77;;;14.30;99.90;;;;;;5052304;28;20194;-70
2021/08/28 03:19:00;;;;;;;36.40;22.33;;;14.30;99.90;;;;;;5036376;28;20171;-72
2021/08/28 03:21:27;;;;;;;38.27;24.23;;;14.30;99.90;;;;;;5052252;28;20203;-69
2021/08/28 03:23:56;;;;;;;35.77;22.43;;;14.30;99.90;;;;;;5052294;28;20241;-71
2021/08/28 03:26:23;;;;;;;48.87;24.30;;;14.30;99.90;;;;;;5037846;28;20187;-72
2021/08/28 03:28:51;;;;;;;34.23;23.37;;;14.40;99.90;;;;;;5050380;28;20656;-69
2021/08/28 03:31:17;;;;;;;32.80;23.77;;;14.40;99.90;;;;;;5047218;28;20285;-70
2021/08/28 03:33:47;;;;;;;33.80;22.47;;;14.40;99.90;;;;;;5051667;28;20741;-72
2021/08/28 03:36:16;;;;;;;37.27;22.50;;;14.40;99.90;;;;;;5048314;28;20178;-70
2021/08/28 03:38:43;;;;;;;39.97;23.13;;;14.40;99.90;;;;;;5049153;28;20269;-72
2021/08/28 03:41:09;;;;;;;35.97;23.87;;;14.40;99.90;;;;;;5038795;28;20221;-71
2021/08/28 03:43:35;;;;;;;36.63;23.13;;;14.40;99.90;;;;;;5043306;28;20178;-70
2021/08/28 03:46:03;;;;;;;37.73;22.30;;;14.40;99.90;;;;;;5043008;28;20193;-68
2021/08/28 03:48:29;;;;;;;36.13;24.33;;;14.50;99.90;;;;;;5046372;28;20182;-68
2021/08/28 03:50:56;;;;;;;34.63;23.70;;;14.50;99.90;;;;;;5041876;28;20226;-68
2021/08/28 03:53:22;;;;;;;42.50;24.77;;;14.50;99.90;;;;;;5042244;28;20217;-68
2021/08/28 03:55:47;;;;;;;37.23;24.27;;;14.50;99.90;;;;;;5043775;28;20211;-68
2021/08/28 03:58:13;;;;;;;41.83;25.83;;;14.50;99.90;;;;;;5042838;28;20244;-68
2021/08/28 04:00:39;;;;;;;43.50;23.60;;;14.60;99.90;;;;;;5037475;28;20199;-68
2021/08/28 04:03:04;;;;;;;31.63;21.93;;;14.60;99.90;;;;;;5048846;28;20182;-68
2021/08/28 04:05:30;;;;;;;38.93;24.17;;;14.50;99.90;;;;;;5047100;28;20183;-68
2021/08/28 04:07:56;;;;;;;37.23;25.93;;;14.50;99.90;;;;;;5049738;28;20186;-68
2021/08/28 04:10:21;;;;;;;35.70;24.40;;;14.50;99.90;;;;;;5048298;28;20759;-68
2021/08/28 04:12:47;;;;;;;42.20;24.30;;;14.50;99.90;;;;;;5044780;28;20194;-68
2021/08/28 04:15:12;;;;;;;35.83;23.10;;;14.50;99.90;;;;;;5050092;28;20206;-66
2021/08/28 04:17:38;;;;;;;43.30;23.80;;;14.50;99.90;;;;;;5042496;28;20236;-66
2021/08/28 04:20:05;;;;;;;44.03;26.47;;;14.60;99.90;;;;;;5033807;28;20191;-66
2021/08/28 04:22:30;;;;;;;34.93;23.97;;;14.60;99.90;;;;;;5042442;28;20194;-66
2021/08/28 04:24:56;;;;;;;42.50;24.77;;;14.60;99.90;;;;;;5046545;28;20662;-66
2021/08/28 04:27:22;;;;;;;31.43;24.37;;;14.60;99.90;;;;;;5049067;28;20670;-66
2021/08/28 04:29:48;;;;;;;36.57;25.07;;;14.60;99.90;;;;;;5032094;28;20249;-66
2021/08/28 04:32:13;;;;;;;44.33;24.63;;;14.60;99.90;;;;;;5095760;22;20225;-68
2021/08/28 04:34:39;;;;;;;37.00;24.53;;;14.60;99.90;;;;;;5090496;28;20177;-68
2021/08/28 04:37:05;;;;;;;38.33;23.23;;;14.60;99.90;;;;;;5091531;28;20165;-68
2021/08/28 04:39:30;;;;;;;41.23;23.53;;;14.60;99.90;;;;;;5087895;28;20710;-68
2021/08/28 04:41:56;;;;;;;39.10;24.13;;;14.60;99.90;;;;;;5064121;28;20239;-68
2021/08/28 04:44:23;;;;;;;51.47;24.50;;;14.60;99.90;;;;;;5069319;28;20166;-68
2021/08/28 04:46:49;;;;;;;37.90;23.70;;;14.60;99.90;;;;;;5071192;28;20178;-68
2021/08/28 04:49:15;;;;;;;33.03;22.77;;;14.70;99.90;;;;;;5069825;28;20175;-68
2021/08/28 04:51:40;;;;;;;35.87;23.90;;;14.70;99.90;;;;;;5070270;28;20206;-68
2021/08/28 04:54:06;;;;;;;37.90;25.07;;;14.70;99.90;;;;;;5069332;28;20665;-68
2021/08/28 04:56:32;;;;;;;40.90;26.53;;;14.70;99.90;;;;;;5070506;28;20170;-68
2021/08/28 04:58:58;;;;;;;41.10;24.77;;;14.70;99.90;;;;;;5070483;28;20292;-68
2021/08/28 05:01:24;;;;;;;33.67;25.00;;;14.70;99.90;;;;;;5069826;28;20229;-68
2021/08/28 05:03:49;;;;;;;37.87;25.27;;;14.70;99.90;;;;;;5069548;28;20698;-69
2021/08/28 05:06:15;;;;;;;35.37;23.93;;;14.70;99.90;;;;;;5070680;28;20174;-68
2021/08/28 05:08:41;;;;;;;37.90;25.47;;;14.60;99.90;;;;;;5069766;28;20182;-68
2021/08/28 05:11:06;;;;;;;32.13;24.67;;;14.60;99.90;;;;;;5070532;28;20202;-68
2021/08/28 05:13:32;;;;;;;42.63;23.97;;;14.70;99.90;;;;;;5069566;28;20327;-68
2021/08/28 05:15:57;;;;;;;31.50;23.73;;;14.70;99.90;;;;;;5070810;28;20228;-69
2021/08/28 05:18:23;;;;;;;39.37;25.23;;;14.70;99.90;;;;;;5068265;28;20189;-69
2021/08/28 05:20:49;;;;;;;36.70;26.07;;;14.60;99.90;;;;;;5070432;28;20221;-68
2021/08/28 05:23:14;;;;;;;38.93;25.57;;;14.60;99.90;;;;;;5069387;28;20651;-69
2021/08/28 05:25:40;;;;;;;35.13;24.37;;;14.70;99.90;;;;;;5069930;28;20178;-69
2021/08/28 05:28:06;;;;;;;36.63;25.57;;;14.70;99.90;;;;;;5070127;28;20186;-69
2021/08/28 05:30:31;;;;;;;41.60;24.00;;;14.70;99.90;;;;;;5067669;28;20213;-69
2021/08/28 05:32:57;;;;;;;27.67;22.43;;;14.70;99.90;;;;;;5064575;28;20205;-68
2021/08/28 05:35:23;;;;;;;38.20;23.20;;;14.70;99.90;;;;;;5069786;28;20304;-69
2021/08/28 05:37:48;;;;;;;36.10;24.20;;;14.70;99.90;;;;;;5073453;28;20178;-68
2021/08/28 05:40:18;;;;;;;41.47;22.83;;;14.70;99.90;;;;;;5073697;28;20697;-68
2021/08/28 05:42:44;;;;;;;30.10;21.10;;;14.70;99.90;;;;;;5072040;28;20186;-68
2021/08/28 05:45:10;;;;;;;29.10;22.80;;;14.70;99.90;;;;;;5073449;28;20188;-68
2021/08/28 05:47:36;;;;;;;27.57;22.23;;;14.70;99.90;;;;;;5073322;28;20170;-69
2021/08/28 05:50:03;;;;;;;30.77;20.83;;;14.70;99.90;;;;;;5072976;28;20217;-68
2021/08/28 05:52:28;;;;;;;32.90;22.30;;;14.60;99.90;;;;;;5073079;28;20193;-69
2021/08/28 05:54:54;;;;;;;31.87;21.77;;;14.60;99.90;;;;;;5073234;28;20252;-68
2021/08/28 05:57:19;;;;;;;33.30;21.53;;;14.60;99.90;;;;;;5073269;28;20181;-70
2021/08/28 05:59:46;;;;;;;29.57;22.00;;;14.60;99.90;;;;;;5070781;28;20194;-70
2021/08/28 06:02:12;;;;;;;31.07;23.63;;;14.70;99.90;;;;;;5073248;28;20276;-69
2021/08/28 06:04:38;;;;;;;34.17;23.97;;;14.70;99.90;;;;;;5072697;28;20266;-69
2021/08/28 06:07:04;;;;;;;28.50;23.20;;;14.60;99.90;;;;;;5071054;28;20174;-69
2021/08/28 06:09:30;;;;;;;26.10;22.90;;;14.60;99.90;;;;;;5071226;28;20594;-70
2021/08/28 06:11:56;;;;;;;27.77;22.70;;;14.60;99.90;;;;;;5071771;28;20255;-70
2021/08/28 06:14:21;;;;;;;28.67;23.20;;;14.60;99.90;;;;;;5071347;28;20284;-70
2021/08/28 06:16:47;;;;;;;21.93;19.43;;;14.60;99.90;;;;;;5072270;28;20699;-70
2021/08/28 06:19:13;;;;;;;23.60;18.57;;;14.60;99.90;;;;;;5070163;28;20213;-69
2021/08/28 06:21:39;;;;;;;22.20;18.73;;;14.60;99.90;;;;;;5071103;28;20289;-69
2021/08/28 06:24:05;;;;;;;21.83;17.77;;;14.60;99.90;;;;;;5073028;28;20193;-70
2021/08/28 06:26:30;;;;;;;23.10;19.17;;;14.70;99.90;;;;;;5072023;28;20662;-70
2021/08/28 06:28:56;;;;;;;26.30;21.40;;;14.80;99.90;;;;;;5068320;28;20216;-70
2021/08/28 06:31:22;;;;;;;28.20;23.77;;;14.80;99.90;;;;;;5069298;28;20236;-70
2021/08/28 06:33:47;;;;;;;30.00;22.63;;;14.90;99.90;;;;;;5071507;28;20209;-69
2021/08/28 06:36:13;;;;;;;32.27;22.87;;;14.90;99.90;;;;;;5054550;28;20189;-69
2021/08/28 06:38:38;;;;;;;27.03;24.17;;;14.90;99.90;;;;;;5057821;28;20221;-70
2021/08/28 06:41:04;;;;;;;30.83;25.53;;;15.00;99.90;;;;;;5067822;28;20301;-71
2021/08/28 06:43:30;;;;;;;29.60;25.37;;;15.00;99.90;;;;;;5071449;28;20681;-69
2021/08/28 06:45:56;;;;;;;29.87;22.83;;;15.10;99.90;;;;;;5072248;28;20653;-70
2021/08/28 06:48:22;;;;;;;30.73;22.33;;;15.20;99.90;;;;;;5071419;28;20182;-70
2021/08/28 06:50:48;;;;;;;36.27;27.63;;;15.30;99.90;;;;;;5067252;28;20224;-70
2021/08/28 06:53:15;;;;;;;36.30;29.73;;;15.30;99.90;;;;;;5072121;28;20190;-68
2021/08/28 06:55:41;;;;;;;32.77;24.60;;;15.30;99.90;;;;;;5071579;28;20175;-70
2021/08/28 06:58:07;;;;;;;39.30;26.87;;;15.30;99.90;;;;;;5071064;28;20190;-70
2021/08/28 07:00:32;;;;;;;34.23;29.60;;;15.40;99.90;;;;;;5071667;28;20533;-70
2021/08/28 07:02:58;;;;;;;37.03;31.37;;;15.50;99.90;;;;;;5070464;28;20179;-70
2021/08/28 07:05:24;;;;;;;46.73;42.33;;;15.50;99.90;;;;;;5072849;28;20193;-70
2021/08/28 07:07:50;;;;;;;34.33;30.90;;;15.60;99.90;;;;;;5067669;28;20179;-69
2021/08/28 07:10:17;;;;;;;27.87;20.33;;;15.60;99.90;;;;;;5070830;28;20217;-68
2021/08/28 07:12:43;;;;;;;27.57;20.80;;;15.70;99.90;;;;;;5064038;28;20205;-70
2021/08/28 07:15:10;;;;;;;28.00;21.30;;;15.70;99.90;;;;;;5072168;28;20576;-70
2021/08/28 07:17:35;;;;;;;27.97;19.33;;;15.70;99.90;;;;;;5056097;28;20191;-70
2021/08/28 07:20:03;;;;;;;27.50;20.50;;;15.70;99.90;;;;;;5063250;28;20186;-70
2021/08/28 07:22:29;;;;;;;25.03;20.47;;;15.70;99.90;;;;;;5070033;28;20693;-70
2021/08/28 07:24:55;;;;;;;27.63;20.87;;;15.70;99.90;;;;;;5070851;28;20177;-71
2021/08/28 07:27:23;;;;;;;29.23;21.70;;;15.70;99.90;;;;;;5068260;28;20305;-70
2021/08/28 07:29:52;;;;;;;26.77;20.97;;;15.70;99.90;;;;;;5068898;28;20209;-68
2021/08/28 07:32:18;;;;;;;22.57;19.50;;;15.70;99.90;;;;;;5066972;28;20628;-71
2021/08/28 07:34:44;;;;;;;29.83;21.43;;;15.80;99.90;;;;;;5061740;28;20248;-70
2021/08/28 07:37:10;;;;;;;31.33;22.30;;;15.90;99.90;;;;;;5059632;28;20214;-70
2021/08/28 07:39:36;;;;;;;28.13;20.60;;;16.00;99.90;;;;;;5070228;28;20174;-71
2021/08/28 07:42:03;;;;;;;30.50;23.67;;;16.10;99.90;;;;;;5061869;28;20202;-70
2021/08/28 07:44:29;;;;;;;28.83;22.33;;;16.30;99.90;;;;;;5066986;28;21662;-70
2021/08/28 07:46:55;;;;;;;30.77;25.93;;;16.40;99.90;;;;;;5060575;28;20572;-71
2021/08/28 07:49:21;;;;;;;25.67;21.83;;;16.50;99.90;;;;;;5068735;28;20174;-70
2021/08/28 07:51:47;;;;;;;23.93;21.43;;;16.50;99.90;;;;;;5065208;28;20312;-70
2021/08/28 07:54:13;;;;;;;24.67;20.70;;;16.50;99.90;;;;;;5063063;28;20257;-70
2021/08/28 07:56:39;;;;;;;23.80;19.00;;;16.60;99.90;;;;;;5058403;28;20551;-70
2021/08/28 07:59:04;;;;;;;22.97;20.33;;;16.60;99.90;;;;;;5063514;28;20254;-70
2021/08/28 08:01:30;;;;;;;26.53;19.63;;;16.70;99.90;;;;;;5054918;28;20652;-70
2021/08/28 08:03:56;;;;;;;22.90;20.20;;;16.80;99.90;;;;;;5054441;28;20191;-67
2021/08/28 08:06:21;;;;;;;20.00;17.70;;;16.80;99.90;;;;;;5050514;28;20247;-71
2021/08/28 08:08:47;;;;;;;20.10;17.87;;;16.80;99.90;;;;;;5060753;28;20193;-71
2021/08/28 08:11:17;;;;;;;21.70;19.50;;;16.70;99.90;;;;;;5057749;28;20670;-71
2021/08/28 08:13:43;;;;;;;19.67;17.57;;;16.80;99.90;;;;;;5064676;28;20762;-69
2021/08/28 08:16:09;;;;;;;21.77;17.67;;;16.80;99.90;;;;;;5071449;28;20201;-69
2021/08/28 08:18:35;;;;;;;18.63;16.63;;;16.80;99.90;;;;;;5067864;28;20189;-70
2021/08/28 08:21:01;;;;;;;20.67;17.70;;;16.80;99.90;;;;;;5070424;28;20197;-69
2021/08/28 08:23:27;;;;;;;18.50;16.00;;;16.80;99.90;;;;;;5051249;28;20232;-69
2021/08/28 08:25:52;;;;;;;17.17;15.57;;;16.80;99.90;;;;;;5050132;28;20225;-70
2021/08/28 08:28:18;;;;;;;19.80;16.83;;;16.80;99.90;;;;;;5066015;28;20196;-70
2021/08/28 08:30:44;;;;;;;17.80;16.20;;;16.90;99.90;;;;;;5070894;28;20216;-70
2021/08/28 08:33:10;;;;;;;20.80;15.77;;;17.00;99.90;;;;;;5055709;28;20175;-70
2021/08/28 08:35:35;;;;;;;18.47;15.67;;;17.00;99.90;;;;;;5051250;28;20171;-70
2021/08/28 08:38:02;;;;;;;16.87;15.10;;;17.10;99.90;;;;;;5063579;28;20178;-69
2021/08/28 08:40:30;;;;;;;16.07;14.43;;;17.10;99.90;;;;;;5067482;28;20212;-70
2021/08/28 08:42:56;;;;;;;15.87;14.27;;;17.10;99.90;;;;;;5070718;28;20240;-70
2021/08/28 08:45:24;;;;;;;13.57;12.17;;;17.20;99.90;;;;;;5071424;28;20174;-70
2021/08/28 08:47:50;;;;;;;16.17;13.83;;;17.00;99.90;;;;;;5066377;28;20202;-70
2021/08/28 08:50:17;;;;;;;15.63;14.17;;;16.90;99.90;;;;;;5057290;28;20644;-70
2021/08/28 08:52:47;;;;;;;16.07;13.63;;;16.90;99.90;;;;;;5051188;28;20221;-70
2021/08/28 08:55:14;;;;;;;17.53;14.77;;;16.90;99.90;;;;;;5051354;28;20179;-70
2021/08/28 08:57:40;;;;;;;17.67;15.90;;;16.80;99.90;;;;;;5057250;28;20608;-70
2021/08/28 09:00:06;;;;;;;18.40;16.60;;;16.90;99.90;;;;;;5070791;28;20178;-69
2021/08/28 09:02:33;;;;;;;19.63;17.23;;;16.90;99.90;;;;;;5066286;28;20297;-70
2021/08/28 09:04:58;;;;;;;18.83;16.33;;;17.10;99.90;;;;;;5051221;28;20175;-70
2021/08/28 09:07:24;;;;;;;19.57;17.67;;;17.30;99.90;;;;;;5052846;28;20573;-70
2021/08/28 09:09:49;;;;;;;20.87;17.67;;;17.60;99.90;;;;;;5074405;28;20192;-71
2021/08/28 09:12:15;;;;;;;15.53;13.97;;;18.20;99.90;;;;;;5071193;28;20210;-70
2021/08/28 09:14:41;;;;;;;13.10;11.80;;;18.60;99.90;;;;;;5055093;28;20197;-70
2021/08/28 09:17:19;;;;;;;14.07;12.40;;;18.70;99.90;;;;;;5068571;28;20182;-70
2021/08/28 09:19:46;;;;;;;14.13;12.37;;;18.50;99.90;;;;;;5060333;28;20209;-70
2021/08/28 09:22:27;;;;;;;12.63;11.07;;;18.20;99.90;;;;;;5054527;28;20191;-70
2021/08/28 09:24:56;;;;;;;10.97;10.00;;;18.20;99.90;;;;;;5068704;28;20525;-69
2021/08/28 09:27:36;;;;;;;11.80;10.60;;;18.10;99.90;;;;;;5074597;28;20623;-70
2021/08/28 09:30:13;;;;;;;12.93;11.47;;;18.50;99.90;;;;;;5058882;28;20213;-70
2021/08/28 09:32:48;;;;;;;13.07;11.73;;;18.90;99.90;;;;;;5053777;28;20214;-70
2021/08/28 09:35:14;;;;;;;12.77;11.50;;;19.40;99.90;;;;;;5069520;28;20627;-70
2021/08/28 09:37:42;;;;;;;11.80;10.73;;;19.30;99.90;;;;;;5074347;28;20180;-70
2021/08/28 09:40:08;;;;;;;12.20;11.13;;;19.10;99.90;;;;;;5057560;28;20187;-69
2021/08/28 09:42:37;;;;;;;12.73;9.83;;;18.90;99.90;;;;;;5054299;28;20612;-69
2021/08/28 09:45:09;;;;;;;11.30;10.30;;;18.60;99.90;;;;;;5066390;28;20186;-68
2021/08/28 09:47:35;;;;;;;10.73;9.80;;;18.50;99.90;;;;;;5074186;28;20233;-69
2021/08/28 09:50:01;;;;;;;10.87;9.80;;;18.50;99.90;;;;;;5060795;28;20294;-69
2021/08/28 09:52:27;;;;;;;10.30;9.30;;;18.70;99.90;;;;;;5061206;28;20542;-69
2021/08/28 09:54:55;;;;;;;9.70;8.90;;;19.30;99.90;;;;;;5062589;28;20251;-68
2021/08/28 09:57:25;;;;;;;8.90;8.20;;;19.90;99.90;;;;;;5054196;28;20174;-69
2021/08/28 09:59:50;;;;;;;9.73;8.93;;;20.00;99.90;;;;;;5063681;28;20186;-69
2021/08/28 10:02:17;;;;;;;10.17;9.47;;;20.30;99.90;;;;;;5073821;28;20194;-69
2021/08/28 10:04:55;;;;;;;9.27;8.67;;;20.70;99.90;;;;;;5065321;28;20568;-69
2021/08/28 10:07:29;;;;;;;8.23;7.30;;;21.30;99.90;;;;;;5074026;28;20166;-69
2021/08/28 10:10:00;;;;;;;7.13;6.63;;;21.60;99.90;;;;;;5063690;28;20206;-69
2021/08/28 10:12:27;;;;;;;7.47;6.90;;;21.90;99.90;;;;;;5059933;28;20200;-69
2021/08/28 10:14:55;;;;;;;7.87;7.07;;;21.80;99.90;;;;;;5074004;28;20178;-69
2021/08/28 10:17:23;;;;;;;7.03;6.53;;;22.00;99.90;;;;;;5068360;28;20260;-70
2021/08/28 10:19:51;;;;;;;7.70;7.20;;;21.80;99.90;;;;;;5053357;28;20616;-69
2021/08/28 10:22:22;;;;;;;7.23;6.73;;;21.40;99.90;;;;;;5056494;28;20655;-69
2021/08/28 10:24:53;;;;;;;9.13;8.33;;;21.00;99.90;;;;;;5073401;28;20170;-70
2021/08/28 10:27:20;;;;;;;9.43;8.67;;;20.70;99.90;;;;;;5069581;28;20640;-70
2021/08/28 10:29:46;;;;;;;9.80;8.87;;;20.50;99.90;;;;;;5053126;28;20556;-70
2021/08/28 10:32:12;;;;;;;11.63;10.60;;;20.00;99.90;;;;;;5078423;22;20226;-67
2021/08/28 10:34:38;;;;;;;11.53;10.77;;;19.60;99.90;;;;;;5053029;28;20182;-67
2021/08/28 10:37:04;;;;;;;9.23;8.43;;;19.30;99.90;;;;;;5051990;28;20182;-67
2021/08/28 10:39:30;;;;;;;8.47;7.87;;;18.60;99.90;;;;;;5071335;28;20175;-67
2021/08/28 10:41:57;;;;;;;8.90;8.20;;;18.40;99.90;;;;;;5085141;28;20189;-67
2021/08/28 10:44:23;;;;;;;9.77;9.00;;;18.00;99.90;;;;;;5074009;28;20174;-67
2021/08/28 10:46:48;;;;;;;7.90;7.40;;;17.50;99.90;;;;;;5073057;28;20175;-67
2021/08/28 10:49:15;;;;;;;9.23;8.53;;;17.30;99.90;;;;;;5090449;28;20693;-68
2021/08/28 10:51:42;;;;;;;9.17;8.47;;;17.20;99.90;;;;;;5092897;28;20213;-68
2021/08/28 10:54:12;;;;;;;8.77;8.17;;;17.00;99.90;;;;;;5076599;28;20224;-68
2021/08/28 10:56:50;;;;;;;8.80;8.03;;;16.90;99.90;;;;;;5072925;28;20253;-67
2021/08/28 10:59:23;;;;;;;9.10;8.50;;;16.80;99.90;;;;;;5089098;28;20173;-68
2021/08/28 11:01:58;;;;;;;9.23;8.53;;;16.80;99.90;;;;;;5090114;28;20201;-68
2021/08/28 11:04:31;;;;;;;9.80;9.00;;;16.80;99.90;;;;;;5092218;28;20180;-67
2021/08/28 11:07:28;;;;;;;9.70;9.00;;;16.80;99.90;;;;;;5092834;28;20252;-67
2021/08/28 11:10:14;;;;;;;10.80;9.87;;;16.80;99.90;;;;;;5052184;28;20564;-67
2021/08/28 11:12:51;;;;;;;11.23;10.23;;;17.00;99.90;;;;;;5091526;28;20193;-67
2021/08/28 11:15:35;;;;;;;10.20;9.40;;;17.20;99.90;;;;;;5084769;28;20202;-67
2021/08/28 11:18:05;;;;;;;9.60;8.90;;;17.40;99.90;;;;;;5071094;28;20177;-67
2021/08/28 11:20:42;;;;;;;9.03;8.33;;;17.80;99.90;;;;;;5081202;28;20191;-67
2021/08/28 11:23:19;;;;;;;8.60;8.00;;;18.30;99.90;;;;;;5092618;28;20179;-67
2021/08/28 11:25:50;;;;;;;8.80;8.20;;;18.60;99.90;;;;;;5081755;28;20635;-67
2021/08/28 11:28:19;;;;;;;7.73;7.03;;;18.90;99.90;;;;;;5070900;28;20178;-67
2021/08/28 11:30:45;;;;;;;7.47;6.87;;;19.00;99.90;;;;;;5080931;28;20276;-67
2021/08/28 11:33:19;;;;;;;8.07;7.47;;;19.10;99.90;;;;;;5092478;28;20276;-67
2021/08/28 11:35:54;;;;;;;7.53;7.03;;;19.30;99.90;;;;;;5082567;28;20173;-66
2021/08/28 11:38:25;;;;;;;7.57;6.93;;;19.50;99.90;;;;;;5078304;28;20180;-67
2021/08/28 11:41:02;;;;;;;7.77;7.27;;;19.40;99.90;;;;;;5071624;28;20224;-66
2021/08/28 11:43:32;;;;;;;7.13;6.63;;;19.60;99.90;;;;;;5074231;28;20181;-67
2021/08/28 11:46:07;;;;;;;6.20;5.90;;;19.70;99.90;;;;;;5072008;28;20174;-67
2021/08/28 11:48:38;;;;;;;6.87;6.47;;;20.00;99.90;;;;;;5070515;28;20181;-67
2021/08/28 11:51:13;;;;;;;7.50;7.00;;;20.50;99.90;;;;;;5071495;28;20283;-67
2021/08/28 11:53:39;;;;;;;7.87;7.37;;;20.40;99.90;;;;;;5070466;28;20177;-67
2021/08/28 11:56:22;;;;;;;8.13;7.63;;;20.50;99.90;;;;;;5071693;28;20177;-67
2021/08/28 11:58:55;;;;;;;8.27;7.63;;;20.50;99.90;;;;;;5071015;28;20216;-67
2021/08/28 12:01:30;;;;;;;7.87;7.27;;;20.60;99.90;;;;;;5071599;28;20185;-66
2021/08/28 12:04:08;;;;;;;12.07;7.07;;;21.20;99.90;;;;;;5071802;28;20571;-67
2021/08/28 12:06:35;;;;;;;7.90;7.40;;;21.40;99.90;;;;;;5071559;28;20554;-66
2021/08/28 12:09:03;;;;;;;6.83;6.43;;;21.50;99.90;;;;;;5070381;28;20174;-67
2021/08/28 12:11:29;;;;;;;7.07;6.67;;;21.50;99.90;;;;;;5071313;28;20206;-67
2021/08/28 12:13:57;;;;;;;7.07;6.57;;;21.40;99.90;;;;;;5071641;28;20245;-66
2021/08/28 12:16:37;;;;;;;7.40;6.73;;;21.60;99.90;;;;;;5071195;28;20162;-67
2021/08/28 12:19:25;;;;;;;7.10;6.60;;;21.50;99.90;;;;;;5071774;28;20227;-66
2021/08/28 12:21:59;;;;;;;7.30;6.80;;;21.70;99.90;;;;;;5084703;28;20209;-67
2021/08/28 12:24:30;;;;;;;7.67;7.07;;;21.70;99.90;;;;;;5091631;28;20249;-67
2021/08/28 12:27:01;;;;;;;7.53;7.00;;;21.50;99.90;;;;;;5091636;28;20546;-67
2021/08/28 12:29:33;;;;;;;9.07;8.40;;;21.30;99.90;;;;;;5091494;28;20545;-66
2021/08/28 12:32:10;;;;;;;9.27;8.63;;;21.10;99.90;;;;;;5091274;28;20288;-66
2021/08/28 12:34:41;;;;;;;8.37;7.77;;;20.90;99.90;;;;;;5091439;28;20177;-66